AirNav   Air Wisconsin pilot careers
 
 1005 users online  

9Z8 Levelock Airport
Levelock, Alaska, USA


FAA INFORMATION EFFECTIVE 04 JANUARY 2018

Location

FAA Identifier: 9Z8
Lat/Long: 59-07-37.5000N / 156-51-35.6000W
59-07.625000N / 156-51.593333W
59.1270833 / -156.8598889
(estimated)
Elevation: 55.8 ft. / 17.0 m (surveyed)
Variation: 18E (2000)
From city: 1 mile NNW of LEVELOCK, AK
Time zone: UTC -9 (UTC -8 during Daylight Saving Time)

Airport Operations

Airport use: Open to the public
Activation date: 06/2002
Control tower: no
ARTCC: ANCHORAGE CENTER
FSS: KENAI FLIGHT SERVICE STATION [907-283-8469]
NOTAMs facility: ENA (NOTAM-D service available)
Attendance: UNATNDD
Wind indicator: lighted, WINDSOCKS IN SOFT SOIL; MAY BE UNRELIABLE.
Segmented circle: yes
Lights: ACTVT MIRL RY 01/19 - CTAF.
Beacon: white-green (lighted land airport)
ACTVT ROTG BCN - CTAF.

Airport Communications

CTAF: 122.9
UNICOM: 122.95

Nearby radio navigation aids

VOR radial/distance  VOR name  Freq  Var
AKNr336/24.4KING SALMON VORTAC112.8016E

 
NDB name  Hdg/Dist  Freq  Var  ID
CHINOOK338/23.535516EAUB .- ..- -...

Airport Services

Parking: tiedowns

Runway Information

Runway 1/19

Dimensions: 3284 x 60 ft. / 1001 x 18 m
Surface: gravel, in good condition
RY AND SHOLDERS SOFT AND MUDDY WHEN WET. MULTIPLE 2-4 INCH RUTS ON RY EDGES AND CIRCULAR RUTS NEAR RY THLDS.
Runway edge lights: medium intensity
RUNWAY 1  RUNWAY 19
Latitude: 59-07.381872N59-07.866497N
Longitude: 156-51.823312W156-51.364055W
Elevation: 55.4 ft.52.3 ft.
Traffic pattern: leftleft
Runway heading: 008 magnetic, 026 true188 magnetic, 206 true
Touchdown point: yes, no lightsyes, no lights
Obstructions: 27 ft. trees, 634 ft. from runway, 23:1 slope to clear22 ft. trees, 993 ft. from runway, 45:1 slope to clear

Airport Ownership and Management from official FAA records

Ownership: Publicly-owned
Owner: ALASKA DOT&PF SOUTHCOAST REGION
P. O. BOX 196900
ANCHORAGE, AK 99519-6900
Phone 907-269-0767
Manager: PAUL HANSEN
P. O. BOX 65
KING SALMON, AK 99613
Phone 907-246-3325

Airport Operational Statistics

Aircraft operations: avg 28/week *
51% transient general aviation
35% air taxi
14% local general aviation
* for 12-month period ending 31 December 2013

Additional Remarks

RY CONDITION NOT MONITORED; RECOMMEND VISUAL INSPECTION PRIOR TO LANDING.
SAFETY AREAS BYD THLDS SINKING SOFT SAND USE ONLY AS EMERGENCY OVERRUN.

Instrument Procedures

There are no published instrument procedures at 9Z8.

Some nearby airports with instrument procedures:

PANW - New Stuyahok Airport (25 nm NW)
PFWS - South Naknek Nr 2 Airport (26 nm S)
PAKN - King Salmon Airport (28 nm S)
PAIG - Igiugig Airport (32 nm E)
PAJZ - Koliganek Airport (38 nm N)
 
Loc | Ops | Rwys | IFR | FBO | Links
Com | Nav | Svcs | Stats | Notes

Crowley
 
Area around 9Z8 (Levelock Airport)
 
Road maps at: MapQuest Bing Google
 
Aerial photo
No photo
 
Sectional chart

 
Airport distance calculator
Flying to Levelock Airport? Find the distance to fly.

From to 9Z8

Sunrise and sunset
Times for 20-Jan-2018
 Local
(UTC-9)
 Zulu
(UTC)
Morning civil twilight09:1218:12
Sunrise10:0119:01
Sunset17:1602:16
Evening civil twilight18:0503:05

Current date and time
Zulu (UTC)  20-Jan-2018 20:07:08
Local (UTC-9)  20-Jan-2018 11:07:08
 
METAR
PANW 
24nm NW 
201956Z AUTO 35018G28KT 10SM -SN CLR M16/M23 A3003 RMK AO2 PK WND 35028/1948 SNB55 SLP187 P0000 T11561228 FZRANO
PFWS 
26nm S 
201856Z AUTO 36018KT 10SM CLR M15/M20 A3005 RMK AO2 SLP183 T11501200 FZRANO
PAKN 
27nm S 
201954Z 35018G27KT 10SM CLR M16/M22 A3000 RMK AO2 PK WND 35029/1857 SLP159 T11561222
PAIG 
32nm E 
201956Z AUTO 30007KT 10SM CLR M16/M22 A3001 RMK AO2 SLP173 T11611217 FZRANO $
PAJZ 
38nm N 
201956Z AUTO 33019G27KT 7SM CLR M16/M23 A3010 RMK AO2 PK WND 34029/1927 SLP200 T11611233 FZRANO $
TAF
PAKN 
27nm S 
201721Z 2018/2118 36017G25KT P6SM SKC WS015/01045KT
NOTAMs
Click for the latest NOTAMs
NOTAMs are issued by the DoD/FAA and will open in a separate window not controlled by AirNav.

 

 
 

Would you like to see your business listed on this page?

 If your business provides an interesting product or service to pilots, flight crews, aircraft, or users of the Levelock Airport, you should consider listing it here.  To start the listing process, click on the button below
 
Add a business
 

Other Pages about Levelock Airport

Update a link
 
Copyright © AirNav, LLC. All rights reserved. Privacy Policy  Contact